createdAt,value
2023-05-19T00:00:59.415Z,10.65
2023-05-19T00:03:27.798Z,10.70
2023-05-19T00:05:54.847Z,10.72
2023-05-19T00:08:23.600Z,10.79
2023-05-19T00:10:51.297Z,10.78
2023-05-19T00:13:18.175Z,10.73
2023-05-19T00:15:45.162Z,10.66
2023-05-19T00:18:12.034Z,10.69
2023-05-19T00:20:38.819Z,10.68
2023-05-19T00:23:05.454Z,10.62
2023-05-19T00:25:32.249Z,10.58
2023-05-19T00:28:00.334Z,10.67
2023-05-19T00:30:29.637Z,10.69
2023-05-19T00:32:57.070Z,10.68
2023-05-19T00:35:24.557Z,10.65
2023-05-19T00:37:51.227Z,10.60
2023-05-19T00:40:22.456Z,10.62
2023-05-19T00:42:49.097Z,10.48
2023-05-19T00:45:15.920Z,10.60
2023-05-19T00:47:42.734Z,10.54
2023-05-19T00:50:10.176Z,10.45
2023-05-19T00:52:38.378Z,10.42
2023-05-19T00:55:08.291Z,10.48
2023-05-19T00:57:35.070Z,10.43
2023-05-19T01:00:01.849Z,10.33
2023-05-19T01:02:29.147Z,10.36
2023-05-19T01:04:57.557Z,10.29
2023-05-19T01:07:24.292Z,10.30
2023-05-19T01:09:52.307Z,10.29
2023-05-19T01:12:19.258Z,10.37
2023-05-19T01:14:47.459Z,10.29
2023-05-19T01:17:22.324Z,10.28
2023-05-19T01:20:08.455Z,10.25
2023-05-19T01:23:02.831Z,10.30
2023-05-19T01:26:07.428Z,10.19
2023-05-19T01:29:02.561Z,10.18
2023-05-19T01:31:29.829Z,10.22
2023-05-19T01:33:58.446Z,10.19
2023-05-19T01:36:30.140Z,10.21
2023-05-19T01:38:59.178Z,10.19
2023-05-19T01:41:26.824Z,10.20
2023-05-19T01:43:54.035Z,10.17
2023-05-19T01:46:21.501Z,10.27
2023-05-19T01:48:48.658Z,10.18
2023-05-19T01:51:15.417Z,10.17
2023-05-19T01:53:42.221Z,10.16
2023-05-19T01:56:09.146Z,10.15
2023-05-19T01:58:46.379Z,10.22
2023-05-19T02:01:34.213Z,10.13
2023-05-19T02:04:16.420Z,10.13
2023-05-19T02:07:03.981Z,10.23
2023-05-19T02:10:05.386Z,10.25
2023-05-19T02:12:36.291Z,10.21
2023-05-19T02:15:15.660Z,10.23
2023-05-19T02:17:47.074Z,10.23
2023-05-19T02:20:15.632Z,10.28
2023-05-19T02:22:42.872Z,10.24
2023-05-19T02:25:11.666Z,10.27
2023-05-19T02:27:41.698Z,10.24
2023-05-19T02:30:11.590Z,10.29
2023-05-19T02:32:38.493Z,10.27
2023-05-19T02:35:05.860Z,10.25
2023-05-19T02:37:32.992Z,10.27
2023-05-19T02:39:59.895Z,10.29
2023-05-19T02:42:26.579Z,10.28
2023-05-19T02:44:54.771Z,10.28
2023-05-19T02:47:24.461Z,10.31
2023-05-19T02:49:51.185Z,10.18
2023-05-19T02:52:17.819Z,10.10
2023-05-19T02:54:44.804Z,10.17
2023-05-19T02:57:11.612Z,10.19
2023-05-19T02:59:38.599Z,10.14
2023-05-19T03:02:05.702Z,10.20
2023-05-19T03:04:32.774Z,10.17
2023-05-19T03:06:59.659Z,10.11
2023-05-19T03:09:26.406Z,10.09
2023-05-19T03:11:53.153Z,10.10
2023-05-19T03:14:19.830Z,10.16
2023-05-19T03:16:50.838Z,10.23
2023-05-19T03:19:17.927Z,10.14
2023-05-19T03:21:44.593Z,10.20
2023-05-19T03:24:11.239Z,10.16
2023-05-19T03:26:37.975Z,10.21
2023-05-19T03:29:04.743Z,10.26
2023-05-19T03:31:31.537Z,10.25
2023-05-19T03:33:58.362Z,10.25
2023-05-19T03:36:25.245Z,10.26
2023-05-19T03:38:52.099Z,10.30
2023-05-19T03:41:19.054Z,10.32
2023-05-19T03:43:47.905Z,10.32
2023-05-19T03:46:14.617Z,10.37
2023-05-19T03:48:41.333Z,10.38
2023-05-19T03:51:08.320Z,10.37
2023-05-19T03:53:36.785Z,10.37
2023-05-19T03:56:03.661Z,10.44
2023-05-19T03:58:30.446Z,10.46
2023-05-19T04:00:57.523Z,10.47
2023-05-19T04:03:24.620Z,10.46
2023-05-19T04:05:51.782Z,10.56
2023-05-19T04:08:18.548Z,10.61
2023-05-19T04:10:45.457Z,10.66
2023-05-19T04:13:13.189Z,10.62
2023-05-19T04:15:40.009Z,10.65
2023-05-19T04:18:07.221Z,10.71
2023-05-19T04:20:34.320Z,10.75
2023-05-19T04:23:02.257Z,10.82
2023-05-19T04:25:29.091Z,10.89
2023-05-19T04:27:55.815Z,10.97
2023-05-19T04:30:22.832Z,11.03
2023-05-19T04:32:49.703Z,11.08
2023-05-19T04:35:16.774Z,11.11
2023-05-19T04:37:44.866Z,11.16
2023-05-19T04:40:13.190Z,11.03
2023-05-19T04:42:39.899Z,11.22
2023-05-19T04:45:07.635Z,11.30
2023-05-19T04:47:37.473Z,11.36
2023-05-19T04:50:07.667Z,11.39
2023-05-19T04:52:34.366Z,11.46
2023-05-19T04:55:04.339Z,11.60
2023-05-19T04:57:36.933Z,11.87
2023-05-19T05:00:05.479Z,12.07
2023-05-19T05:02:32.239Z,11.98
2023-05-19T05:04:58.955Z,11.86
2023-05-19T05:07:26.227Z,11.85
2023-05-19T05:09:52.985Z,11.78
2023-05-19T05:12:20.227Z,11.89
2023-05-19T05:14:47.458Z,12.18
2023-05-19T05:17:14.525Z,12.42
2023-05-19T05:19:41.756Z,12.37
2023-05-19T05:22:11.979Z,12.40
2023-05-19T05:24:38.939Z,12.23
2023-05-19T05:27:06.130Z,12.32
2023-05-19T05:29:36.901Z,12.43
2023-05-19T05:32:05.822Z,12.48
2023-05-19T05:34:32.764Z,12.47
2023-05-19T05:36:59.731Z,12.85
2023-05-19T05:39:33.576Z,13.26
2023-05-19T05:42:03.679Z,13.38
2023-05-19T05:44:31.428Z,13.54
2023-05-19T05:46:58.471Z,13.65
2023-05-19T05:49:25.576Z,13.73
2023-05-19T05:52:05.146Z,13.69
2023-05-19T05:54:33.833Z,14.10
2023-05-19T05:57:01.316Z,14.20
2023-05-19T05:59:31.846Z,14.32
2023-05-19T06:01:59.216Z,14.46
2023-05-19T06:04:26.226Z,14.46
2023-05-19T06:06:52.954Z,14.62
2023-05-19T06:09:20.820Z,14.76
2023-05-19T06:11:47.906Z,14.61
2023-05-19T06:14:15.146Z,14.78
2023-05-19T06:16:42.086Z,15.17
2023-05-19T06:19:11.847Z,15.02
2023-05-19T06:21:38.808Z,15.54
2023-05-19T06:24:08.082Z,15.55
2023-05-19T06:29:31.547Z,15.66
2023-05-19T06:32:05.598Z,15.71
2023-05-19T06:37:24.676Z,15.70
2023-05-19T06:40:04.998Z,15.64
2023-05-19T06:42:34.816Z,15.66
2023-05-19T06:45:01.784Z,15.94
2023-05-19T06:47:33.310Z,15.91
2023-05-19T06:50:00.024Z,15.91
2023-05-19T06:52:29.401Z,15.88
2023-05-19T06:54:56.063Z,15.88
2023-05-19T06:57:22.964Z,16.01
2023-05-19T06:59:50.067Z,16.14
2023-05-19T07:02:17.208Z,16.33
2023-05-19T07:04:47.104Z,16.32
2023-05-19T07:07:13.964Z,16.11
2023-05-19T07:09:40.685Z,15.96
2023-05-19T07:12:07.681Z,15.89
2023-05-19T07:14:34.707Z,15.94
2023-05-19T07:17:01.445Z,16.01
2023-05-19T07:19:28.266Z,16.13
2023-05-19T07:21:55.583Z,15.86
2023-05-19T07:24:24.482Z,15.90
2023-05-19T07:26:51.201Z,15.86
2023-05-19T07:29:20.782Z,15.61
2023-05-19T07:31:48.341Z,15.74
2023-05-19T07:34:15.076Z,15.88
2023-05-19T07:36:41.813Z,16.02
2023-05-19T07:39:08.814Z,16.11
2023-05-19T07:41:39.241Z,16.24
2023-05-19T07:44:08.180Z,16.25
2023-05-19T07:46:35.414Z,16.33
2023-05-19T07:49:13.135Z,16.31
2023-05-19T07:51:40.000Z,16.34
2023-05-19T07:54:06.753Z,16.43
2023-05-19T07:56:47.909Z,16.62
2023-05-19T07:59:16.874Z,16.56
2023-05-19T08:01:45.867Z,16.65
2023-05-19T08:04:13.270Z,16.58
2023-05-19T08:06:44.085Z,16.58
2023-05-19T08:12:26.250Z,16.56
2023-05-19T08:14:53.196Z,16.71
2023-05-19T08:17:49.602Z,16.93
2023-05-19T08:20:16.449Z,17.25
2023-05-19T08:23:03.898Z,17.57
2023-05-19T08:25:30.806Z,17.75
2023-05-19T08:27:57.952Z,17.98
2023-05-19T08:30:29.077Z,18.33
2023-05-19T08:32:55.972Z,18.32
2023-05-19T08:35:22.807Z,18.34
2023-05-19T08:37:49.438Z,18.32
2023-05-19T08:40:22.229Z,18.46
2023-05-19T08:42:51.948Z,18.39
2023-05-19T08:45:18.682Z,18.21
2023-05-19T08:47:46.863Z,18.27
2023-05-19T08:50:48.968Z,18.27
2023-05-19T08:53:34.255Z,18.62
2023-05-19T08:56:34.393Z,18.66
2023-05-19T08:59:16.637Z,18.59
2023-05-19T09:01:54.564Z,18.50
2023-05-19T09:04:47.547Z,18.69
2023-05-19T09:07:18.959Z,18.90
2023-05-19T09:13:03.838Z,19.18
2023-05-19T09:15:31.844Z,19.02
2023-05-19T09:18:12.544Z,19.17
2023-05-19T09:21:09.284Z,19.14
2023-05-19T09:23:41.928Z,19.17
2023-05-19T09:26:09.656Z,19.28
2023-05-19T09:28:37.401Z,19.40
2023-05-19T09:31:11.181Z,19.49
2023-05-19T09:34:09.505Z,19.57
2023-05-19T09:36:43.993Z,19.71
2023-05-19T09:39:42.045Z,19.46
2023-05-19T09:45:12.304Z,19.82
2023-05-19T09:47:54.829Z,19.79
2023-05-19T09:50:27.628Z,19.86
2023-05-19T09:52:58.449Z,19.87
2023-05-19T09:55:35.456Z,19.95
2023-05-19T09:58:06.706Z,20.12
2023-05-19T10:00:34.473Z,20.11
2023-05-19T10:03:16.147Z,20.26
2023-05-19T10:05:50.714Z,20.32
2023-05-19T10:08:17.856Z,20.25
2023-05-19T10:10:48.669Z,20.36
2023-05-19T10:13:16.671Z,20.47
2023-05-19T10:15:58.245Z,20.32
2023-05-19T10:18:27.338Z,20.50
2023-05-19T10:20:55.714Z,20.51
2023-05-19T10:23:22.781Z,20.52
2023-05-19T10:25:51.493Z,20.54
2023-05-19T10:28:22.866Z,20.53
2023-05-19T10:30:52.135Z,20.54
2023-05-19T10:33:21.908Z,20.47
2023-05-19T10:35:51.264Z,20.49
2023-05-19T10:38:32.942Z,20.46
2023-05-19T10:41:23.908Z,20.48
2023-05-19T10:44:13.893Z,20.47
2023-05-19T10:46:47.008Z,20.28
2023-05-19T10:49:25.895Z,20.17
2023-05-19T10:51:56.099Z,20.10
2023-05-19T10:54:46.689Z,20.32
2023-05-19T10:57:17.812Z,20.41
2023-05-19T10:59:44.909Z,20.48
2023-05-19T11:02:37.360Z,20.69
2023-05-19T11:05:15.304Z,20.48
2023-05-19T11:07:43.098Z,20.65
2023-05-19T11:10:10.857Z,20.80
2023-05-19T11:12:42.547Z,20.88
2023-05-19T11:15:16.317Z,20.89
2023-05-19T11:17:50.250Z,20.70
2023-05-19T11:20:32.607Z,20.80
2023-05-19T11:23:18.186Z,20.79
2023-05-19T11:25:51.765Z,20.67
2023-05-19T11:28:22.272Z,20.84
2023-05-19T11:30:49.474Z,20.66
2023-05-19T11:33:16.486Z,20.80
2023-05-19T11:35:47.400Z,20.91
2023-05-19T11:38:24.940Z,21.03
2023-05-19T11:40:55.483Z,21.00
2023-05-19T11:43:36.084Z,21.01
2023-05-19T11:46:10.665Z,21.05
2023-05-19T11:48:37.926Z,21.20
2023-05-19T11:51:07.931Z,21.27
2023-05-19T11:53:42.389Z,21.42
2023-05-19T11:56:12.678Z,21.53
2023-05-19T11:58:42.717Z,21.55
2023-05-19T12:01:09.910Z,21.58
2023-05-19T12:03:37.209Z,21.58
2023-05-19T12:06:10.577Z,21.32
2023-05-19T12:08:37.361Z,21.49
2023-05-19T12:11:05.128Z,21.54
2023-05-19T12:13:31.886Z,21.61
2023-05-19T12:16:03.598Z,21.50
2023-05-19T12:18:36.750Z,21.65
2023-05-19T12:21:04.572Z,21.63
2023-05-19T12:23:35.344Z,21.75
2023-05-19T12:26:05.068Z,21.75
2023-05-19T12:28:31.914Z,21.75
2023-05-19T12:30:59.045Z,21.93
2023-05-19T12:33:26.017Z,21.93
2023-05-19T12:35:55.112Z,21.91
2023-05-19T12:38:22.844Z,21.80
2023-05-19T12:40:50.274Z,21.82
2023-05-19T12:43:23.555Z,21.98
2023-05-19T12:45:50.328Z,21.99
2023-05-19T12:48:17.420Z,21.86
2023-05-19T12:50:54.888Z,21.76
2023-05-19T12:53:26.602Z,21.79
2023-05-19T12:55:53.513Z,21.82
2023-05-19T12:58:21.191Z,21.88
2023-05-19T13:00:54.814Z,22.01
2023-05-19T13:03:21.886Z,22.01
2023-05-19T13:05:50.166Z,22.13
2023-05-19T13:08:24.267Z,22.21
2023-05-19T13:10:53.648Z,22.22
2023-05-19T13:13:20.361Z,22.33
2023-05-19T13:15:50.477Z,22.32
2023-05-19T13:18:17.996Z,22.40
2023-05-19T13:20:45.867Z,22.45
2023-05-19T13:23:13.512Z,22.38
2023-05-19T13:25:41.327Z,22.53
2023-05-19T13:28:12.819Z,22.49
2023-05-19T13:30:40.916Z,22.58
2023-05-19T13:33:07.944Z,22.44
2023-05-19T13:35:35.360Z,22.58
2023-05-19T13:38:09.139Z,22.55
2023-05-19T13:40:35.896Z,22.47
2023-05-19T13:43:03.978Z,22.29
2023-05-19T13:45:35.323Z,22.18
2023-05-19T13:48:02.229Z,22.12
2023-05-19T13:50:31.681Z,22.04
2023-05-19T13:52:58.462Z,21.96
2023-05-19T13:55:25.951Z,21.91
2023-05-19T13:57:54.315Z,21.87
2023-05-19T14:00:25.780Z,21.79
2023-05-19T14:02:53.705Z,21.77
2023-05-19T14:05:20.475Z,21.76
2023-05-19T14:07:47.133Z,21.72
2023-05-19T14:10:15.632Z,21.65
2023-05-19T14:13:07.853Z,21.59
2023-05-19T14:15:29.134Z,21.53
2023-05-19T14:17:55.891Z,21.45
2023-05-19T14:20:27.859Z,21.28
2023-05-19T14:22:55.903Z,21.00
2023-05-19T14:25:22.812Z,20.52
2023-05-19T14:27:49.615Z,20.08
2023-05-19T14:30:16.372Z,19.73
2023-05-19T14:32:43.240Z,19.38
2023-05-19T14:35:10.528Z,19.16
2023-05-19T14:37:37.269Z,19.03
2023-05-19T14:40:04.236Z,18.88
2023-05-19T14:42:31.071Z,18.86
2023-05-19T14:45:04.170Z,18.84
2023-05-19T14:47:31.111Z,18.84
2023-05-19T14:49:57.852Z,18.82
2023-05-19T14:52:24.662Z,18.82
2023-05-19T14:54:51.345Z,18.84
2023-05-19T14:57:19.542Z,18.86
2023-05-19T14:59:46.430Z,18.83
2023-05-19T15:02:13.345Z,18.82
2023-05-19T15:04:40.188Z,18.79
2023-05-19T15:07:10.974Z,18.85
2023-05-19T15:09:38.238Z,18.87
2023-05-19T15:12:06.457Z,18.83
2023-05-19T15:14:35.697Z,18.89
2023-05-19T15:17:02.643Z,18.93
2023-05-19T15:19:32.262Z,18.94
2023-05-19T15:21:59.082Z,18.99
2023-05-19T15:24:26.020Z,19.03
2023-05-19T15:26:56.104Z,19.02
2023-05-19T15:29:22.770Z,18.99
2023-05-19T15:31:52.525Z,19.04
2023-05-19T15:34:20.101Z,19.01
2023-05-19T15:36:47.126Z,19.00
2023-05-19T15:39:14.041Z,19.04
2023-05-19T15:41:40.868Z,19.07
2023-05-19T15:44:10.630Z,19.11
2023-05-19T15:46:37.478Z,19.27
2023-05-19T15:49:04.639Z,19.48
2023-05-19T15:51:31.394Z,19.63
2023-05-19T15:53:58.603Z,19.62
2023-05-19T15:56:25.358Z,19.56
2023-05-19T15:58:55.052Z,19.52
2023-05-19T16:01:21.889Z,19.51
2023-05-19T16:03:51.670Z,19.59
2023-05-19T16:06:18.681Z,19.62
2023-05-19T16:08:45.395Z,19.58
2023-05-19T16:11:12.119Z,19.53
2023-05-19T16:13:38.789Z,19.47
2023-05-19T16:16:06.135Z,19.45
2023-05-19T16:18:32.925Z,19.49
2023-05-19T16:20:59.747Z,19.44
2023-05-19T16:23:26.458Z,19.40
2023-05-19T16:25:53.836Z,19.44
2023-05-19T16:28:22.563Z,19.50
2023-05-19T16:30:55.112Z,19.54
2023-05-19T16:33:21.769Z,19.50
2023-05-19T16:35:49.615Z,19.47
2023-05-19T16:38:21.831Z,19.44
2023-05-19T16:40:48.552Z,19.41
2023-05-19T16:43:15.202Z,19.41
2023-05-19T16:45:42.077Z,19.37
2023-05-19T16:48:09.757Z,19.35
2023-05-19T16:50:36.837Z,19.35
2023-05-19T16:53:03.891Z,19.36
2023-05-19T16:55:39.687Z,19.35
2023-05-19T16:58:06.447Z,19.32
2023-05-19T17:00:34.484Z,19.30
2023-05-19T17:03:01.555Z,19.28
2023-05-19T17:05:29.596Z,19.26
2023-05-19T17:07:56.272Z,19.25
2023-05-19T17:10:22.981Z,19.21
2023-05-19T17:12:53.488Z,19.19
2023-05-19T17:15:20.209Z,19.18
2023-05-19T17:17:46.889Z,19.09
2023-05-19T17:20:16.502Z,19.05
2023-05-19T17:22:45.792Z,19.05
2023-05-19T17:25:15.353Z,19.11
2023-05-19T17:27:42.095Z,19.17
2023-05-19T17:30:11.428Z,19.13
2023-05-19T17:32:38.281Z,19.13
2023-05-19T17:35:06.402Z,19.08
2023-05-19T17:37:33.389Z,19.00
2023-05-19T17:40:00.552Z,19.01
2023-05-19T17:42:27.306Z,19.01
2023-05-19T17:44:54.125Z,18.99
2023-05-19T17:47:21.001Z,18.91
2023-05-19T17:49:50.325Z,18.88
2023-05-19T17:52:27.098Z,18.80
2023-05-19T17:54:57.255Z,18.71
2023-05-19T17:57:25.953Z,18.68
2023-05-19T17:59:53.189Z,18.62
2023-05-19T18:02:20.246Z,18.65
2023-05-19T18:04:47.325Z,18.65
2023-05-19T18:07:22.132Z,18.66
2023-05-19T18:09:54.273Z,18.66
2023-05-19T18:12:24.001Z,18.64
2023-05-19T18:14:50.742Z,18.66
2023-05-19T18:17:17.606Z,18.58
2023-05-19T18:19:44.304Z,18.57
2023-05-19T18:22:13.237Z,18.57
2023-05-19T18:24:39.992Z,18.54
2023-05-19T18:27:09.756Z,18.56
2023-05-19T18:29:43.595Z,18.54
2023-05-19T18:32:10.604Z,18.49
2023-05-19T18:34:52.900Z,18.41
2023-05-19T18:37:25.516Z,18.41
2023-05-19T18:39:57.578Z,18.37
2023-05-19T18:42:24.363Z,18.34
2023-05-19T18:45:00.284Z,18.29
2023-05-19T18:47:30.075Z,18.26
2023-05-19T18:49:58.070Z,18.16
2023-05-19T18:52:24.931Z,18.05
2023-05-19T18:54:51.702Z,18.01
2023-05-19T18:57:18.543Z,17.98
2023-05-19T18:59:45.420Z,17.96
2023-05-19T19:02:12.183Z,17.82
2023-05-19T19:04:39.477Z,17.82
2023-05-19T19:07:06.148Z,17.72
2023-05-19T19:09:39.029Z,17.69
2023-05-19T19:12:05.978Z,17.65
2023-05-19T19:14:35.685Z,17.54
2023-05-19T19:17:02.397Z,17.43
2023-05-19T19:19:29.229Z,17.42
2023-05-19T19:21:57.169Z,17.49
2023-05-19T19:24:25.859Z,17.49
2023-05-19T19:26:52.603Z,17.51
2023-05-19T19:29:19.242Z,17.61
2023-05-19T19:31:46.106Z,17.64
2023-05-19T19:34:14.709Z,17.68
2023-05-19T19:36:41.444Z,17.67
2023-05-19T19:39:08.107Z,17.62
2023-05-19T19:41:34.766Z,17.55
2023-05-19T19:44:05.622Z,17.52
2023-05-19T19:46:32.542Z,17.48
2023-05-19T19:48:59.306Z,17.47
2023-05-19T19:51:27.048Z,17.49
2023-05-19T19:53:54.029Z,17.46
2023-05-19T19:56:20.834Z,17.47
2023-05-19T19:58:47.679Z,17.48
2023-05-19T20:01:14.363Z,17.40
2023-05-19T20:03:48.197Z,17.39
2023-05-19T20:06:15.122Z,17.37
2023-05-19T20:08:41.908Z,17.33
2023-05-19T20:11:08.694Z,17.30
2023-05-19T20:13:35.514Z,17.31
2023-05-19T20:16:03.352Z,17.31
2023-05-19T20:18:30.196Z,17.26
2023-05-19T20:20:57.279Z,17.22
2023-05-19T20:23:24.993Z,17.20
2023-05-19T20:26:09.986Z,17.24
2023-05-19T20:28:38.254Z,17.22
2023-05-19T20:31:05.226Z,17.20
2023-05-19T20:33:33.614Z,17.22
2023-05-19T20:36:01.958Z,17.21
2023-05-19T20:38:28.727Z,17.10
2023-05-19T20:40:55.426Z,17.15
2023-05-19T20:43:22.103Z,17.14
2023-05-19T20:45:48.906Z,17.12
2023-05-19T20:48:17.776Z,17.07
2023-05-19T20:50:48.202Z,17.04
2023-05-19T20:53:14.995Z,17.03
2023-05-19T20:55:44.608Z,17.01
2023-05-19T20:58:12.126Z,17.02
2023-05-19T21:00:38.937Z,16.99
2023-05-19T21:03:05.859Z,16.99
2023-05-19T21:05:32.793Z,16.95
2023-05-19T21:07:59.604Z,16.92
2023-05-19T21:10:26.343Z,16.89
2023-05-19T21:12:53.143Z,16.88
2023-05-19T21:15:20.023Z,16.88
2023-05-19T21:17:46.896Z,16.86
2023-05-19T21:20:13.642Z,16.93
2023-05-19T21:22:43.524Z,16.93
2023-05-19T21:25:10.298Z,16.94
2023-05-19T21:27:37.012Z,16.95
2023-05-19T21:30:03.895Z,16.96
2023-05-19T21:32:30.739Z,16.98
2023-05-19T21:35:00.527Z,16.96
2023-05-19T21:37:27.653Z,16.97
2023-05-19T21:39:54.328Z,16.94
2023-05-19T21:42:21.107Z,16.93
2023-05-19T21:44:47.804Z,16.86
2023-05-19T21:47:16.983Z,16.86
2023-05-19T21:49:44.022Z,16.82
2023-05-19T21:52:10.757Z,16.79
2023-05-19T21:54:37.480Z,16.77
2023-05-19T21:57:04.447Z,16.80
2023-05-19T21:59:31.168Z,16.79
2023-05-19T22:01:58.525Z,16.79
2023-05-19T22:04:25.296Z,16.81
2023-05-19T22:06:55.953Z,16.80
2023-05-19T22:09:22.736Z,16.80
2023-05-19T22:11:51.230Z,16.79
2023-05-19T22:14:29.999Z,16.73
2023-05-19T22:16:57.486Z,16.70
2023-05-19T22:19:24.236Z,16.66
2023-05-19T22:21:58.423Z,16.61
2023-05-19T22:24:36.095Z,16.60
2023-05-19T22:27:03.437Z,16.53
2023-05-19T22:29:30.095Z,16.51
2023-05-19T22:31:56.906Z,16.44
2023-05-19T22:34:23.695Z,16.44
2023-05-19T22:36:52.163Z,16.39
2023-05-19T22:39:28.260Z,16.31
2023-05-19T22:41:57.383Z,16.26
2023-05-19T22:44:26.188Z,16.17
2023-05-19T22:46:53.050Z,16.19
2023-05-19T22:49:22.015Z,16.09
2023-05-19T22:51:49.805Z,16.01
2023-05-19T22:54:21.407Z,15.93
2023-05-19T22:56:48.081Z,15.94
2023-05-19T22:59:23.973Z,15.87
2023-05-19T23:01:50.865Z,15.87
2023-05-19T23:04:17.622Z,15.80
2023-05-19T23:06:44.575Z,15.77
2023-05-19T23:09:13.038Z,15.71
2023-05-19T23:11:39.717Z,15.68
2023-05-19T23:14:07.332Z,15.60
2023-05-19T23:16:35.433Z,15.53
2023-05-19T23:19:02.531Z,15.46
2023-05-19T23:21:30.616Z,15.39
2023-05-19T23:23:57.469Z,15.38
2023-05-19T23:26:24.189Z,15.35
2023-05-19T23:28:53.455Z,15.35
2023-05-19T23:31:20.256Z,15.29
2023-05-19T23:33:47.020Z,15.24
2023-05-19T23:36:19.048Z,15.16
2023-05-19T23:38:48.555Z,15.09
2023-05-19T23:41:15.385Z,14.99
2023-05-19T23:43:44.855Z,15.00
2023-05-19T23:46:20.927Z,15.00
2023-05-19T23:48:49.060Z,14.90
2023-05-19T23:51:15.898Z,14.87
2023-05-19T23:53:42.838Z,14.82
2023-05-19T23:56:10.111Z,14.79
2023-05-19T23:58:37.090Z,14.73
